Time;durP1;ratioP1;P1;durP2;ratioP2;P2;SDS_P1;SDS_P2;PMS_P1;PMS_P2;Temp;Humidity;BMP_temperature;BMP_pressure;BME280_temperature;BME280_humidity;BME280_pressure;Samples;Min_cycle;Max_cycle;Signal;HPM_P1;HPM_P2
2022/03/18 00:02:11;;;;;;;0.20;0.20;;;6.70;99.90;;;;;;5023519;28;20253;-84
2022/03/18 00:04:37;;;;;;;0.57;0.57;;;6.70;99.90;;;;;;5023740;28;20918;-84
2022/03/18 00:07:03;;;;;;;0.10;0.10;;;6.60;99.90;;;;;;5022799;28;20215;-84
2022/03/18 00:09:29;;;;;;;0.10;0.10;;;6.60;99.90;;;;;;5023117;28;20187;-84
2022/03/18 00:11:54;;;;;;;0.40;0.40;;;6.60;99.90;;;;;;5022565;28;20218;-84
2022/03/18 00:14:20;;;;;;;0.17;0.17;;;6.70;99.90;;;;;;5023903;28;20576;-84
2022/03/18 00:16:45;;;;;;;1.47;1.07;;;6.70;99.90;;;;;;5023508;28;20195;-84
2022/03/18 00:19:11;;;;;;;0.37;0.27;;;6.70;99.90;;;;;;5023730;28;20194;-84
2022/03/18 00:21:37;;;;;;;0.10;0.10;;;6.70;99.90;;;;;;5025528;28;20199;-84
2022/03/18 00:24:03;;;;;;;0.20;0.20;;;6.70;99.90;;;;;;5023829;28;21052;-84
2022/03/18 00:26:30;;;;;;;0.00;0.00;;;6.70;99.90;;;;;;5022629;28;20248;-85
2022/03/18 00:28:55;;;;;;;0.30;0.30;;;6.70;99.90;;;;;;5022962;28;20202;-83
2022/03/18 00:31:21;;;;;;;0.33;0.33;;;6.70;99.90;;;;;;5024246;28;20186;-84
2022/03/18 00:33:47;;;;;;;1.10;0.60;;;6.70;99.90;;;;;;5022643;28;20209;-84
2022/03/18 00:36:13;;;;;;;0.60;0.30;;;6.70;99.90;;;;;;5022243;28;20222;-84
2022/03/18 00:38:39;;;;;;;0.20;0.20;;;6.60;99.90;;;;;;5022335;28;20209;-84
2022/03/18 00:41:05;;;;;;;0.10;0.10;;;6.60;99.90;;;;;;5021202;28;20230;-83
2022/03/18 00:43:30;;;;;;;0.20;0.20;;;6.60;99.90;;;;;;5024603;28;20264;-84
2022/03/18 00:45:56;;;;;;;1.20;0.63;;;6.60;99.90;;;;;;5023131;28;20198;-84
2022/03/18 00:53:51;;;;;;;0.20;0.20;;;6.70;99.90;;;;;;5024670;28;20216;-84
2022/03/18 00:56:17;;;;;;;0.20;0.20;;;6.60;99.90;;;;;;5021958;28;20198;-83
2022/03/18 00:58:43;;;;;;;1.40;0.50;;;6.50;99.90;;;;;;5023293;28;20637;-84
2022/03/18 01:01:08;;;;;;;0.20;0.20;;;6.50;99.90;;;;;;5021791;28;20269;-84
2022/03/18 01:03:34;;;;;;;0.30;0.30;;;6.50;99.90;;;;;;5032236;28;20275;-84
2022/03/18 01:05:59;;;;;;;1.40;1.10;;;6.50;99.90;;;;;;5022392;28;20260;-83
2022/03/18 01:08:26;;;;;;;0.50;0.27;;;6.50;99.90;;;;;;5025116;28;20569;-84
2022/03/18 01:10:53;;;;;;;0.40;0.40;;;6.50;99.90;;;;;;5024824;28;20196;-84
2022/03/18 01:13:19;;;;;;;0.67;0.67;;;6.50;99.90;;;;;;5022631;28;20202;-84
2022/03/18 01:15:45;;;;;;;0.20;0.20;;;6.40;99.90;;;;;;5030379;28;20193;-84
2022/03/18 01:18:11;;;;;;;0.37;0.37;;;6.50;99.90;;;;;;5023451;28;20194;-84
2022/03/18 01:20:36;;;;;;;0.50;0.50;;;6.40;99.90;;;;;;5021665;28;20217;-84
2022/03/18 01:23:06;;;;;;;2.23;0.73;;;6.40;99.90;;;;;;5023406;28;20583;-84
2022/03/18 01:25:34;;;;;;;0.73;0.30;;;6.40;99.90;;;;;;5021286;28;20201;-84
2022/03/18 01:28:03;;;;;;;0.17;0.17;;;6.40;99.90;;;;;;5022499;28;20301;-84
2022/03/18 01:30:29;;;;;;;0.10;0.10;;;6.40;99.90;;;;;;5022681;28;21221;-84
2022/03/18 01:32:55;;;;;;;0.33;0.33;;;6.40;99.90;;;;;;5022788;28;20221;-84
2022/03/18 01:35:21;;;;;;;1.30;0.73;;;6.40;99.90;;;;;;5021508;28;20233;-84
2022/03/18 01:37:46;;;;;;;0.10;0.10;;;6.40;99.90;;;;;;5023111;28;20219;-84
2022/03/18 01:40:12;;;;;;;1.50;0.40;;;6.40;99.90;;;;;;5021310;28;20661;-84
2022/03/18 01:42:38;;;;;;;1.80;0.30;;;6.40;99.90;;;;;;5023052;28;20210;-84
2022/03/18 01:45:04;;;;;;;0.40;0.40;;;6.30;99.90;;;;;;5023054;28;20229;-84
2022/03/18 01:47:29;;;;;;;0.10;0.10;;;6.30;99.90;;;;;;5021972;28;20210;-84
2022/03/18 01:49:58;;;;;;;0.23;0.23;;;6.30;99.90;;;;;;5024047;28;20186;-84
2022/03/18 01:52:24;;;;;;;0.23;0.23;;;6.30;99.90;;;;;;5024566;28;20202;-84
2022/03/18 01:54:51;;;;;;;0.10;0.10;;;6.30;99.90;;;;;;5021067;28;20218;-84
2022/03/18 01:57:22;;;;;;;0.30;0.30;;;6.30;99.90;;;;;;5021324;28;20660;-84
2022/03/18 01:59:49;;;;;;;7.93;0.73;;;6.20;99.90;;;;;;5022171;28;20198;-84
2022/03/18 02:02:16;;;;;;;0.40;0.40;;;6.20;99.90;;;;;;5022601;28;20848;-84
2022/03/18 02:04:43;;;;;;;0.20;0.20;;;6.30;99.90;;;;;;5021959;28;20198;-84
2022/03/18 02:07:09;;;;;;;0.20;0.20;;;6.30;99.90;;;;;;5022084;28;20636;-84
2022/03/18 02:09:37;;;;;;;0.57;0.40;;;6.30;99.90;;;;;;5023204;28;20651;-84
2022/03/18 02:12:03;;;;;;;0.40;0.40;;;6.30;99.90;;;;;;5025607;28;20209;-84
2022/03/18 02:14:44;;;;;;;0.47;0.47;;;6.30;99.90;;;;;;5026110;28;20178;-84
2022/03/18 02:17:12;;;;;;;0.33;0.33;;;6.20;99.90;;;;;;5024752;28;20208;-83
2022/03/18 02:19:39;;;;;;;0.10;0.10;;;6.20;99.90;;;;;;5026193;28;20212;-84
2022/03/18 02:22:11;;;;;;;0.17;0.17;;;6.20;99.90;;;;;;5025545;28;20256;-84
2022/03/18 02:24:42;;;;;;;1.37;1.23;;;6.20;99.90;;;;;;5026409;28;20193;-84
2022/03/18 02:27:08;;;;;;;0.73;0.73;;;6.30;99.90;;;;;;5025270;28;20225;-84
2022/03/18 02:29:34;;;;;;;0.23;0.20;;;6.30;99.90;;;;;;5024477;28;20194;-84
2022/03/18 02:32:01;;;;;;;0.30;0.30;;;6.20;99.90;;;;;;5025695;28;20264;-84
2022/03/18 02:34:31;;;;;;;0.20;0.17;;;6.20;99.90;;;;;;5025105;28;20190;-84
2022/03/18 02:36:57;;;;;;;0.40;0.30;;;6.20;99.90;;;;;;5022858;28;20197;-83
2022/03/18 02:39:22;;;;;;;0.23;0.23;;;6.20;99.90;;;;;;5025717;28;20224;-83
2022/03/18 02:41:48;;;;;;;0.10;0.10;;;6.20;99.90;;;;;;5024805;28;20230;-84
2022/03/18 02:44:14;;;;;;;0.33;0.33;;;6.20;99.90;;;;;;5025745;28;20191;-84
2022/03/18 02:46:39;;;;;;;0.20;0.20;;;6.20;99.90;;;;;;5026048;28;20285;-84
2022/03/18 02:49:06;;;;;;;0.67;0.37;;;6.20;99.90;;;;;;5026656;28;20193;-84
2022/03/18 02:51:32;;;;;;;0.30;0.27;;;6.20;99.90;;;;;;5027627;28;20241;-84
2022/03/18 02:53:58;;;;;;;0.33;0.33;;;6.10;99.90;;;;;;5025162;28;20193;-84
2022/03/18 02:56:25;;;;;;;0.20;0.20;;;6.10;99.90;;;;;;5025840;28;20265;-84
2022/03/18 02:58:51;;;;;;;0.20;0.20;;;6.10;99.90;;;;;;5024842;28;20186;-84
2022/03/18 03:01:17;;;;;;;0.43;0.13;;;6.10;99.90;;;;;;5026350;28;20261;-84
2022/03/18 03:03:42;;;;;;;2.30;0.50;;;6.10;99.90;;;;;;5023765;28;20214;-84
2022/03/18 03:08:52;;;;;;;0.27;0.27;;;6.10;99.90;;;;;;5024942;28;20576;-84
2022/03/18 03:11:18;;;;;;;0.53;0.40;;;6.10;99.90;;;;;;5025323;28;20179;-84
2022/03/18 03:13:43;;;;;;;0.87;0.60;;;6.00;99.90;;;;;;5024295;28;20198;-84
2022/03/18 03:16:09;;;;;;;0.53;0.40;;;6.10;99.90;;;;;;5023507;28;20191;-84
2022/03/18 03:18:35;;;;;;;0.33;0.33;;;6.10;99.90;;;;;;5025530;28;20197;-83
2022/03/18 03:21:01;;;;;;;0.10;0.10;;;6.00;99.90;;;;;;5024393;28;20186;-84
2022/03/18 03:23:27;;;;;;;0.27;0.27;;;6.10;99.90;;;;;;5024960;28;20704;-84
2022/03/18 03:25:53;;;;;;;0.83;0.30;;;6.10;99.90;;;;;;5023845;28;20198;-84
2022/03/18 03:28:20;;;;;;;0.20;0.20;;;6.10;99.90;;;;;;5024211;28;20181;-84
2022/03/18 03:30:46;;;;;;;0.20;0.20;;;6.00;99.90;;;;;;5024058;28;20183;-84
2022/03/18 03:33:12;;;;;;;0.43;0.43;;;6.10;99.90;;;;;;5024757;28;20198;-84
2022/03/18 03:35:38;;;;;;;0.70;0.70;;;6.10;99.90;;;;;;5023137;28;20225;-84
2022/03/18 03:38:08;;;;;;;0.73;0.20;;;6.10;99.90;;;;;;5024455;28;20218;-84
2022/03/18 03:40:34;;;;;;;0.83;0.83;;;6.10;99.90;;;;;;5023820;28;20253;-84
2022/03/18 03:42:59;;;;;;;0.20;0.20;;;6.10;99.90;;;;;;5023651;28;20264;-83
2022/03/18 03:45:25;;;;;;;0.27;0.27;;;6.00;99.90;;;;;;5024385;28;20182;-84
2022/03/18 03:47:51;;;;;;;0.10;0.10;;;6.00;99.90;;;;;;5025403;28;20248;-84
2022/03/18 03:50:17;;;;;;;0.40;0.40;;;6.00;99.90;;;;;;5025248;28;20179;-83
2022/03/18 03:52:43;;;;;;;0.30;0.30;;;6.00;99.90;;;;;;5024376;28;20206;-84
2022/03/18 03:55:11;;;;;;;0.87;0.87;;;6.00;99.90;;;;;;5025111;28;20244;-84
2022/03/18 03:57:38;;;;;;;0.10;0.10;;;6.00;99.90;;;;;;5022479;28;20186;-84
2022/03/18 04:00:05;;;;;;;0.27;0.27;;;6.00;99.90;;;;;;5023161;28;20189;-84
2022/03/18 04:02:30;;;;;;;0.37;0.37;;;6.00;99.90;;;;;;5023135;28;20202;-84
2022/03/18 04:04:57;;;;;;;0.67;0.67;;;6.00;99.90;;;;;;5023151;28;20179;-83
2022/03/18 04:07:25;;;;;;;0.00;0.00;;;6.00;99.90;;;;;;5023387;28;20771;-84
2022/03/18 04:09:53;;;;;;;0.10;0.10;;;5.90;99.90;;;;;;5021938;28;20659;-84
2022/03/18 04:12:22;;;;;;;0.87;0.60;;;6.00;99.90;;;;;;5018787;28;20253;-84
2022/03/18 04:14:51;;;;;;;0.47;0.10;;;6.00;99.90;;;;;;5020936;28;20206;-84
2022/03/18 04:17:17;;;;;;;2.80;0.30;;;6.00;99.90;;;;;;5028182;28;20190;-84
2022/03/18 04:19:42;;;;;;;0.50;0.50;;;6.00;99.90;;;;;;5029306;28;20210;-83
2022/03/18 04:22:08;;;;;;;0.10;0.10;;;6.00;99.90;;;;;;5027773;28;20206;-83
2022/03/18 04:24:34;;;;;;;1.60;0.57;;;6.00;99.90;;;;;;5027224;28;20281;-84
2022/03/18 04:27:00;;;;;;;0.63;0.63;;;6.00;99.90;;;;;;5026989;28;20684;-84
2022/03/18 04:29:25;;;;;;;0.40;0.40;;;5.90;99.90;;;;;;5026238;28;20197;-84
2022/03/18 04:31:51;;;;;;;0.20;0.20;;;6.00;99.90;;;;;;5027033;28;20236;-83
2022/03/18 04:34:18;;;;;;;0.10;0.10;;;5.90;99.90;;;;;;5025386;28;20210;-84
2022/03/18 04:36:43;;;;;;;7.00;5.40;;;5.90;99.90;;;;;;5025262;28;20277;-84
2022/03/18 04:39:09;;;;;;;1.17;0.47;;;5.90;99.90;;;;;;5028198;28;20272;-84
2022/03/18 04:41:35;;;;;;;3.70;0.53;;;5.80;99.90;;;;;;5025334;28;20277;-84
2022/03/18 04:44:01;;;;;;;0.30;0.30;;;5.80;99.90;;;;;;5029310;28;20261;-84
2022/03/18 04:46:28;;;;;;;0.13;0.13;;;5.90;99.90;;;;;;5026781;28;20250;-84
2022/03/18 04:48:54;;;;;;;0.40;0.40;;;5.90;99.90;;;;;;5027835;28;20183;-84
2022/03/18 04:51:20;;;;;;;0.33;0.33;;;5.80;99.90;;;;;;5028328;28;20189;-84
2022/03/18 04:53:45;;;;;;;0.13;0.13;;;5.80;99.90;;;;;;5025873;28;20202;-84
2022/03/18 04:57:15;;;;;;;0.30;0.30;;;5.70;99.90;;;;;;5023114;28;20210;-84
2022/03/18 04:58:57;;;;;;;0.20;0.20;;;5.70;99.90;;;;;;5027240;28;20206;-83
2022/03/18 05:01:23;;;;;;;2.70;0.47;;;5.80;99.90;;;;;;5027138;28;20248;-84
2022/03/18 05:03:48;;;;;;;0.70;0.70;;;5.80;99.90;;;;;;5025805;28;20202;-84
2022/03/18 05:06:14;;;;;;;0.10;0.10;;;5.70;99.90;;;;;;5025477;28;20873;-84
2022/03/18 05:08:40;;;;;;;0.73;0.73;;;5.80;99.90;;;;;;5022531;28;20200;-84
2022/03/18 05:11:05;;;;;;;0.13;0.13;;;5.80;99.90;;;;;;5032203;28;21366;-84
2022/03/18 05:13:31;;;;;;;0.27;0.27;;;5.80;99.90;;;;;;5017473;28;20217;-84
2022/03/18 05:15:56;;;;;;;0.10;0.10;;;5.70;99.90;;;;;;5017882;28;20186;-83
2022/03/18 05:18:23;;;;;;;1.90;1.80;;;5.70;99.90;;;;;;5021956;28;20244;-83
2022/03/18 05:20:48;;;;;;;0.20;0.20;;;5.70;99.90;;;;;;5025971;28;20183;-83
2022/03/18 05:23:14;;;;;;;0.20;0.20;;;5.70;99.90;;;;;;5027510;28;20218;-83
2022/03/18 05:25:40;;;;;;;0.77;0.63;;;5.70;99.90;;;;;;5026618;28;20209;-84
2022/03/18 05:28:07;;;;;;;0.10;0.10;;;5.80;99.90;;;;;;5025352;28;20825;-84
2022/03/18 05:30:33;;;;;;;4.03;0.23;;;5.80;99.90;;;;;;5023836;28;20197;-83
2022/03/18 05:32:59;;;;;;;0.10;0.10;;;5.80;99.90;;;;;;5019262;28;20210;-84
2022/03/18 05:35:25;;;;;;;0.20;0.20;;;5.90;99.90;;;;;;5024066;28;20182;-84
2022/03/18 05:37:50;;;;;;;0.20;0.20;;;5.70;99.90;;;;;;5023758;28;20190;-84
2022/03/18 05:40:18;;;;;;;0.40;0.20;;;5.70;99.90;;;;;;5024392;28;20182;-83
2022/03/18 05:42:46;;;;;;;7.33;0.30;;;5.70;99.90;;;;;;5027572;28;20252;-84
2022/03/18 05:45:12;;;;;;;0.23;0.23;;;5.60;99.90;;;;;;5028730;28;20902;-84
2022/03/18 05:47:38;;;;;;;0.50;0.20;;;5.70;99.90;;;;;;5027201;28;20316;-83
2022/03/18 05:50:06;;;;;;;0.20;0.20;;;5.70;99.90;;;;;;5027206;28;20325;-83
2022/03/18 05:52:32;;;;;;;0.10;0.10;;;5.70;99.90;;;;;;5027700;28;20194;-84
2022/03/18 05:54:58;;;;;;;0.03;0.03;;;5.60;99.90;;;;;;5029761;28;20187;-84
2022/03/18 05:57:26;;;;;;;0.30;0.30;;;5.60;99.90;;;;;;5027767;28;20267;-84
2022/03/18 05:59:53;;;;;;;0.20;0.20;;;5.60;99.90;;;;;;5029789;28;20551;-84
2022/03/18 06:02:18;;;;;;;0.20;0.20;;;5.70;99.90;;;;;;5030038;28;20233;-83
2022/03/18 06:04:45;;;;;;;0.10;0.10;;;5.70;99.90;;;;;;5029301;28;20216;-84
2022/03/18 06:07:11;;;;;;;0.10;0.10;;;5.70;99.90;;;;;;5025624;28;20213;-84
2022/03/18 06:12:20;;;;;;;0.23;0.23;;;5.60;99.90;;;;;;5027068;28;20967;-82
2022/03/18 06:14:46;;;;;;;0.50;0.50;;;5.60;99.90;;;;;;5027216;28;20190;-81
2022/03/18 06:17:11;;;;;;;1.20;1.10;;;5.70;99.90;;;;;;5030647;28;20217;-82
2022/03/18 06:19:37;;;;;;;0.03;0.03;;;5.70;99.90;;;;;;5027798;28;20201;-81
2022/03/18 06:22:04;;;;;;;0.10;0.10;;;5.70;99.90;;;;;;5025634;28;20218;-82
2022/03/18 06:24:29;;;;;;;0.30;0.20;;;5.70;99.90;;;;;;5023994;28;20186;-81
2022/03/18 06:26:56;;;;;;;0.57;0.13;;;5.80;99.90;;;;;;5025766;28;20805;-81
2022/03/18 06:29:23;;;;;;;0.20;0.20;;;5.90;99.90;;;;;;5026651;28;20362;-81
2022/03/18 06:31:49;;;;;;;0.00;0.00;;;5.90;99.90;;;;;;5026366;28;20248;-81
2022/03/18 06:34:15;;;;;;;0.10;0.10;;;5.90;99.90;;;;;;5021827;28;20201;-81
2022/03/18 06:36:41;;;;;;;0.10;0.10;;;5.90;99.90;;;;;;5022234;28;20220;-81
2022/03/18 06:39:08;;;;;;;0.30;0.30;;;6.10;99.90;;;;;;5025168;28;20284;-82
2022/03/18 06:41:35;;;;;;;0.30;0.30;;;6.00;99.90;;;;;;5026880;28;20206;-82
2022/03/18 06:44:00;;;;;;;0.33;0.33;;;6.10;99.90;;;;;;5026512;28;20232;-82
2022/03/18 06:46:26;;;;;;;0.10;0.10;;;6.20;99.90;;;;;;5025086;28;20221;-81
2022/03/18 06:48:52;;;;;;;2.23;0.70;;;6.20;99.90;;;;;;5028521;28;20186;-81
2022/03/18 06:51:18;;;;;;;0.00;0.00;;;6.20;99.90;;;;;;5026175;28;20190;-81
2022/03/18 06:53:43;;;;;;;0.10;0.10;;;6.30;99.90;;;;;;5026691;28;20774;-82
2022/03/18 06:56:12;;;;;;;0.23;0.20;;;6.30;99.90;;;;;;5026088;28;20190;-81
2022/03/18 06:58:37;;;;;;;0.47;0.47;;;6.30;99.90;;;;;;5024137;28;20213;-81
2022/03/18 07:01:03;;;;;;;0.10;0.10;;;6.40;99.90;;;;;;5020194;28;20186;-81
2022/03/18 07:03:29;;;;;;;0.87;0.50;;;6.30;99.90;;;;;;5025770;28;21567;-81
2022/03/18 07:05:54;;;;;;;0.10;0.10;;;6.40;99.90;;;;;;5025829;28;20278;-82
2022/03/18 07:08:20;;;;;;;0.30;0.30;;;6.40;99.90;;;;;;5026363;28;20220;-82
2022/03/18 07:10:45;;;;;;;0.10;0.10;;;6.40;99.90;;;;;;5027675;28;20214;-82
2022/03/18 07:13:11;;;;;;;0.63;0.20;;;6.50;99.90;;;;;;5029352;28;20209;-82
2022/03/18 07:15:37;;;;;;;0.20;0.20;;;6.50;99.90;;;;;;5026044;28;20183;-82
2022/03/18 07:18:03;;;;;;;0.97;0.80;;;6.60;99.90;;;;;;5024545;28;20182;-82
2022/03/18 07:20:31;;;;;;;0.57;0.20;;;6.60;99.90;;;;;;5021740;28;20196;-81
2022/03/18 07:23:16;;;;;;;1.53;0.23;;;6.60;99.90;;;;;;5020620;28;20210;-80
2022/03/18 07:25:44;;;;;;;0.00;0.00;;;6.60;99.90;;;;;;5019691;28;20186;-81
2022/03/18 07:28:12;;;;;;;0.37;0.17;;;6.70;99.90;;;;;;5022434;28;20225;-82
2022/03/18 07:30:39;;;;;;;0.10;0.10;;;6.70;99.90;;;;;;5023808;28;20187;-82
2022/03/18 07:33:05;;;;;;;0.10;0.10;;;6.70;99.90;;;;;;5024332;28;20244;-81
2022/03/18 07:35:32;;;;;;;0.10;0.10;;;6.70;99.90;;;;;;5020999;28;20640;-82
2022/03/18 07:37:58;;;;;;;0.10;0.10;;;6.80;99.90;;;;;;5015083;28;20236;-81
2022/03/18 07:40:24;;;;;;;0.10;0.10;;;6.80;99.90;;;;;;5026369;28;20187;-82
2022/03/18 07:42:52;;;;;;;0.53;0.20;;;6.90;99.90;;;;;;5022869;28;20218;-82
2022/03/18 07:45:26;;;;;;;0.40;0.40;;;7.10;99.90;;;;;;5021607;28;20206;-82
2022/03/18 07:47:53;;;;;;;0.63;0.63;;;7.20;99.90;;;;;;5023079;28;20214;-82
2022/03/18 07:50:20;;;;;;;0.33;0.33;;;7.20;99.90;;;;;;5022470;28;20186;-82
2022/03/18 07:52:49;;;;;;;0.10;0.10;;;7.20;99.90;;;;;;5023737;28;20211;-82
2022/03/18 07:55:19;;;;;;;0.20;0.20;;;7.40;99.90;;;;;;5023396;28;20251;-82
2022/03/18 07:57:45;;;;;;;0.40;0.40;;;7.40;99.90;;;;;;5023307;28;20223;-82
2022/03/18 08:00:13;;;;;;;0.37;0.33;;;7.60;99.90;;;;;;5024824;28;20187;-81
2022/03/18 08:02:39;;;;;;;0.30;0.30;;;7.70;99.90;;;;;;5025888;28;20303;-82
2022/03/18 08:05:05;;;;;;;0.10;0.10;;;7.90;99.90;;;;;;5023611;28;20220;-81
2022/03/18 08:07:33;;;;;;;0.60;0.30;;;7.90;99.90;;;;;;5020558;28;20304;-82
2022/03/18 08:09:59;;;;;;;2.70;0.73;;;8.00;99.90;;;;;;5020523;28;20186;-82
2022/03/18 08:12:25;;;;;;;2.40;1.37;;;8.10;99.90;;;;;;5023596;28;20202;-81
2022/03/18 08:14:50;;;;;;;0.63;0.37;;;8.10;99.90;;;;;;5023288;28;20196;-82
2022/03/18 08:17:16;;;;;;;0.17;0.17;;;8.30;99.90;;;;;;5023150;28;20192;-82
2022/03/18 08:19:42;;;;;;;0.27;0.27;;;8.20;99.90;;;;;;5023997;28;20193;-82
2022/03/18 08:22:07;;;;;;;0.33;0.33;;;8.30;99.90;;;;;;5023329;28;20217;-82
2022/03/18 08:24:33;;;;;;;0.93;0.53;;;8.40;99.90;;;;;;5024975;28;20228;-82
2022/03/18 08:26:58;;;;;;;0.43;0.30;;;8.40;99.90;;;;;;5023285;28;20207;-81
2022/03/18 08:29:24;;;;;;;0.87;0.87;;;8.50;99.90;;;;;;5024471;28;20559;-82
2022/03/18 08:31:50;;;;;;;0.70;0.70;;;8.30;99.90;;;;;;5023672;28;20197;-82
2022/03/18 08:34:15;;;;;;;0.20;0.20;;;8.30;99.90;;;;;;5024099;28;20188;-81
2022/03/18 08:36:41;;;;;;;1.03;0.93;;;8.40;99.90;;;;;;5022300;28;20186;-82
2022/03/18 08:39:07;;;;;;;0.10;0.10;;;8.40;99.90;;;;;;5024611;28;20278;-81
2022/03/18 08:41:32;;;;;;;0.10;0.10;;;8.60;99.90;;;;;;5023031;28;20235;-82
2022/03/18 08:43:58;;;;;;;0.20;0.20;;;8.60;99.90;;;;;;5022935;28;20212;-81
2022/03/18 08:46:23;;;;;;;0.37;0.30;;;8.70;99.90;;;;;;5015927;28;20204;-81
2022/03/18 08:48:49;;;;;;;3.83;0.77;;;9.00;99.90;;;;;;5019184;28;20274;-84
2022/03/18 08:51:15;;;;;;;0.57;0.57;;;9.00;99.90;;;;;;5013236;28;20560;-81
2022/03/18 08:53:42;;;;;;;0.83;0.33;;;9.10;99.90;;;;;;5023805;28;20578;-81
2022/03/18 08:56:07;;;;;;;0.67;0.33;;;9.10;99.90;;;;;;5021514;28;20190;-81
2022/03/18 08:58:33;;;;;;;0.10;0.10;;;9.30;99.90;;;;;;5025369;28;20181;-81
2022/03/18 09:00:59;;;;;;;0.20;0.20;;;9.30;99.90;;;;;;5023083;28;20187;-81
2022/03/18 09:03:25;;;;;;;0.40;0.40;;;9.30;99.90;;;;;;5019052;28;20231;-81
2022/03/18 09:05:51;;;;;;;0.53;0.53;;;9.10;99.90;;;;;;5019787;28;20276;-81
2022/03/18 09:08:16;;;;;;;0.50;0.50;;;9.10;99.90;;;;;;5021440;28;20221;-81
2022/03/18 09:10:42;;;;;;;0.27;0.27;;;9.00;99.90;;;;;;5025782;28;20189;-81
2022/03/18 09:13:08;;;;;;;0.20;0.20;;;9.00;99.90;;;;;;5024451;28;20217;-81
2022/03/18 09:15:33;;;;;;;0.10;0.10;;;9.00;99.90;;;;;;5023005;28;20188;-81
2022/03/18 09:17:59;;;;;;;0.33;0.33;;;9.00;99.90;;;;;;5022157;28;20188;-82
2022/03/18 09:20:25;;;;;;;0.10;0.10;;;8.90;99.90;;;;;;5020769;28;20181;-81
2022/03/18 09:22:51;;;;;;;0.33;0.33;;;8.80;99.90;;;;;;5020104;28;20238;-81
2022/03/18 09:25:16;;;;;;;0.40;0.27;;;8.60;99.90;;;;;;5023805;28;20251;-81
2022/03/18 09:27:42;;;;;;;0.57;0.20;;;8.60;99.90;;;;;;5018973;28;20208;-81
2022/03/18 09:30:09;;;;;;;0.50;0.50;;;8.80;99.90;;;;;;5021357;28;20184;-81
2022/03/18 09:32:35;;;;;;;0.20;0.20;;;8.90;99.90;;;;;;5020789;28;20249;-81
2022/03/18 09:35:03;;;;;;;0.43;0.20;;;8.90;99.90;;;;;;5020956;28;20177;-82
2022/03/18 09:37:28;;;;;;;1.87;0.57;;;8.90;99.90;;;;;;5017919;28;20193;-82
2022/03/18 09:39:54;;;;;;;0.40;0.40;;;8.80;99.90;;;;;;5018960;28;20194;-81
2022/03/18 09:42:20;;;;;;;0.47;0.20;;;8.80;99.90;;;;;;5020687;28;20751;-82
2022/03/18 09:44:46;;;;;;;0.37;0.37;;;8.90;99.90;;;;;;5020304;28;20273;-80
2022/03/18 09:47:12;;;;;;;0.40;0.40;;;8.90;99.90;;;;;;5021149;28;20306;-82
2022/03/18 09:49:37;;;;;;;1.33;0.20;;;9.00;99.90;;;;;;5023650;28;20216;-81
2022/03/18 09:52:04;;;;;;;0.43;0.43;;;9.10;99.90;;;;;;5025899;28;20209;-81
2022/03/18 09:54:32;;;;;;;0.43;0.27;;;9.10;99.90;;;;;;5028151;28;20211;-82
2022/03/18 09:56:59;;;;;;;0.10;0.10;;;9.20;99.90;;;;;;5026041;28;20596;-81
2022/03/18 09:59:27;;;;;;;0.17;0.10;;;9.20;99.90;;;;;;5023706;28;20526;-81
2022/03/18 10:02:24;;;;;;;0.20;0.20;;;9.10;99.90;;;;;;5024644;28;20241;-81
2022/03/18 10:04:55;;;;;;;0.50;0.50;;;9.10;99.90;;;;;;5021950;28;20276;-81
2022/03/18 10:07:21;;;;;;;0.30;0.30;;;9.30;99.90;;;;;;5023630;28;20209;-83
2022/03/18 10:09:48;;;;;;;0.47;0.47;;;9.40;99.90;;;;;;5025495;28;20228;-84
2022/03/18 10:12:34;;;;;;;3.73;0.40;;;9.50;99.90;;;;;;5021253;28;20216;-81
2022/03/18 10:15:05;;;;;;;1.90;0.20;;;9.60;99.90;;;;;;5024266;28;20185;-82
2022/03/18 10:17:50;;;;;;;0.23;0.23;;;9.70;99.90;;;;;;5025771;28;20280;-81
2022/03/18 10:20:38;;;;;;;2.93;0.70;;;9.60;99.90;;;;;;5028163;28;20268;-81
2022/03/18 10:23:16;;;;;;;1.00;0.97;;;9.80;99.90;;;;;;5026525;28;20262;-81
2022/03/18 10:25:54;;;;;;;0.30;0.30;;;9.90;99.90;;;;;;5025891;28;20192;-81
2022/03/18 10:28:36;;;;;;;0.20;0.20;;;10.00;99.90;;;;;;5023896;28;20213;-82
2022/03/18 10:31:10;;;;;;;1.90;1.80;;;10.20;99.90;;;;;;5027786;28;20178;-82
2022/03/18 10:39:31;;;;;;;0.30;0.30;;;11.10;99.90;;;;;;5028159;28;20191;-82
2022/03/18 10:42:00;;;;;;;0.10;0.10;;;11.00;99.90;;;;;;5026687;28;20205;-82
2022/03/18 10:44:26;;;;;;;2.53;0.50;;;10.90;99.90;;;;;;5027636;28;20183;-82
2022/03/18 10:46:53;;;;;;;1.53;0.50;;;11.00;99.90;;;;;;5027218;28;20293;-81
2022/03/18 10:49:23;;;;;;;0.20;0.20;;;11.30;99.90;;;;;;5026548;28;21398;-82
2022/03/18 10:51:50;;;;;;;0.37;0.37;;;11.90;99.90;;;;;;5025794;28;20178;-82
2022/03/18 10:54:24;;;;;;;0.17;0.17;;;11.90;99.90;;;;;;5027496;28;20343;-81
2022/03/18 10:56:56;;;;;;;0.10;0.10;;;11.70;99.90;;;;;;5025978;28;20178;-82
2022/03/18 10:59:22;;;;;;;0.37;0.23;;;11.70;99.90;;;;;;5024906;28;20213;-81
2022/03/18 11:01:50;;;;;;;0.10;0.10;;;11.80;99.90;;;;;;5025298;28;20196;-81
2022/03/18 11:04:16;;;;;;;0.10;0.10;;;11.50;99.90;;;;;;5026544;28;20660;-82
2022/03/18 11:07:29;;;;;;;0.20;0.20;;;11.90;99.90;;;;;;5026450;28;20220;-81
2022/03/18 11:11:06;;;;;;;0.40;0.40;;;12.00;99.90;;;;;;5026860;28;20240;-81
2022/03/18 11:12:22;;;;;;;1.40;0.30;;;12.20;99.90;;;;;;5025424;28;20209;-82
2022/03/18 11:14:54;;;;;;;0.33;0.33;;;12.30;99.90;;;;;;5025978;28;20856;-82
2022/03/18 11:17:21;;;;;;;1.23;0.67;;;12.40;99.90;;;;;;5026446;28;20185;-81
2022/03/18 11:19:47;;;;;;;0.20;0.20;;;12.30;99.90;;;;;;5023529;28;20194;-82
2022/03/18 11:22:16;;;;;;;0.43;0.43;;;12.30;99.90;;;;;;5024821;28;20710;-82
2022/03/18 11:24:43;;;;;;;2.63;0.80;;;12.40;99.90;;;;;;5024060;28;21138;-82
2022/03/18 11:27:08;;;;;;;0.10;0.10;;;12.30;99.90;;;;;;5022212;28;20238;-82
2022/03/18 11:29:34;;;;;;;0.30;0.30;;;12.60;99.90;;;;;;5026982;28;20201;-82
2022/03/18 11:32:12;;;;;;;0.30;0.30;;;12.80;99.90;;;;;;5025761;28;20209;-82
2022/03/18 11:35:06;;;;;;;2.23;0.57;;;13.10;99.90;;;;;;5025100;28;20651;-82
2022/03/18 11:37:33;;;;;;;0.30;0.30;;;12.80;99.90;;;;;;5025314;28;20687;-82
2022/03/18 11:40:19;;;;;;;0.40;0.40;;;12.90;99.90;;;;;;5024850;28;20218;-82
2022/03/18 11:42:45;;;;;;;0.40;0.40;;;13.10;99.90;;;;;;5012557;28;20211;-82
2022/03/18 11:45:30;;;;;;;0.30;0.30;;;13.20;99.90;;;;;;5024917;28;20303;-81
2022/03/18 11:47:55;;;;;;;0.50;0.50;;;13.20;99.90;;;;;;5023232;28;21134;-82
2022/03/18 11:50:37;;;;;;;0.37;0.37;;;13.20;99.90;;;;;;5026428;28;20226;-81
2022/03/18 11:53:03;;;;;;;0.37;0.30;;;13.40;99.90;;;;;;5021230;28;20209;-82
2022/03/18 11:55:28;;;;;;;0.10;0.10;;;13.60;99.90;;;;;;5022187;28;20184;-82
2022/03/18 11:57:54;;;;;;;0.33;0.33;;;13.80;99.90;;;;;;5023427;28;20226;-82
2022/03/18 12:00:42;;;;;;;0.40;0.40;;;13.20;99.90;;;;;;5025270;28;20195;-82
2022/03/18 12:03:08;;;;;;;8.30;0.33;;;13.80;99.90;;;;;;5027529;28;20211;-82
2022/03/18 12:05:50;;;;;;;0.33;0.33;;;14.00;99.90;;;;;;5023404;28;20204;-82
2022/03/18 12:08:16;;;;;;;1.03;0.43;;;13.90;99.90;;;;;;5024684;28;20297;-81
2022/03/18 12:10:43;;;;;;;0.37;0.37;;;13.70;99.90;;;;;;5024321;28;20274;-82
2022/03/18 12:13:08;;;;;;;0.10;0.10;;;13.80;99.90;;;;;;5023506;28;20559;-81
2022/03/18 12:15:39;;;;;;;0.60;0.60;;;14.10;99.90;;;;;;5023427;28;20191;-81
2022/03/18 12:18:05;;;;;;;0.43;0.43;;;13.80;99.90;;;;;;5023652;28;20559;-82
2022/03/18 12:20:32;;;;;;;5.50;0.67;;;14.00;99.90;;;;;;5024919;28;20576;-82
2022/03/18 12:23:08;;;;;;;0.93;0.47;;;14.20;99.90;;;;;;5025591;28;20211;-82
2022/03/18 12:25:38;;;;;;;3.30;0.43;;;13.90;99.90;;;;;;5027661;28;20194;-82
2022/03/18 12:28:05;;;;;;;3.40;0.90;;;13.80;99.90;;;;;;5025793;28;20248;-82
2022/03/18 12:30:31;;;;;;;1.17;0.43;;;14.20;99.90;;;;;;5025120;28;20178;-82
2022/03/18 12:33:03;;;;;;;0.40;0.40;;;13.90;99.90;;;;;;5022195;28;20779;-82
2022/03/18 12:35:35;;;;;;;6.07;0.30;;;14.00;99.90;;;;;;5024404;28;20269;-82
2022/03/18 12:38:16;;;;;;;0.20;0.20;;;13.80;99.90;;;;;;5023622;28;20190;-82
2022/03/18 12:40:56;;;;;;;0.10;0.10;;;14.10;99.90;;;;;;5023098;28;20268;-81
2022/03/18 12:43:24;;;;;;;0.30;0.30;;;14.10;99.90;;;;;;5026920;28;20212;-82
2022/03/18 12:45:50;;;;;;;0.67;0.47;;;14.10;99.90;;;;;;5022325;28;20207;-82
2022/03/18 12:48:21;;;;;;;0.50;0.50;;;14.30;99.90;;;;;;5025432;28;20225;-81
2022/03/18 12:50:48;;;;;;;0.43;0.30;;;14.50;99.90;;;;;;5023871;28;20190;-82
2022/03/18 12:53:19;;;;;;;0.23;0.23;;;14.20;99.90;;;;;;5024876;28;20671;-82
2022/03/18 12:55:49;;;;;;;0.20;0.20;;;14.00;99.90;;;;;;5023823;28;20243;-82
2022/03/18 12:58:15;;;;;;;0.33;0.33;;;14.20;99.90;;;;;;5027258;28;20185;-82
2022/03/18 13:00:42;;;;;;;0.20;0.20;;;14.10;99.90;;;;;;5025791;28;20884;-81
2022/03/18 13:03:31;;;;;;;0.10;0.10;;;14.30;99.90;;;;;;5025428;28;20208;-82
2022/03/18 13:06:05;;;;;;;0.10;0.10;;;14.40;99.90;;;;;;5032161;28;20210;-82
2022/03/18 13:08:34;;;;;;;0.30;0.30;;;14.40;99.90;;;;;;5020433;28;20300;-81
2022/03/18 13:11:01;;;;;;;0.30;0.30;;;14.40;99.90;;;;;;5024694;28;20180;-81
2022/03/18 13:13:28;;;;;;;0.10;0.10;;;14.30;99.90;;;;;;5024486;28;20206;-81
2022/03/18 13:15:59;;;;;;;0.10;0.10;;;14.50;99.90;;;;;;5022638;28;20275;-82